createdAt,value
2022-12-14T00:01:18.184Z,14.35
2022-12-14T00:03:26.667Z,15.02
2022-12-14T00:05:34.632Z,14.65
2022-12-14T00:07:43.561Z,15.25
2022-12-14T00:09:51.393Z,15.15
2022-12-14T00:12:01.892Z,15.60
2022-12-14T00:14:10.543Z,13.45
2022-12-14T00:16:21.581Z,15.02
2022-12-14T00:18:30.006Z,15.15
2022-12-14T00:20:39.045Z,14.95
2022-12-14T00:22:47.272Z,15.15
2022-12-14T00:24:55.086Z,14.60
2022-12-14T00:27:05.476Z,16.42
2022-12-14T00:29:13.456Z,15.27
2022-12-14T00:31:21.899Z,15.25
2022-12-14T00:33:29.728Z,15.63
2022-12-14T00:35:37.602Z,16.27
2022-12-14T00:37:45.942Z,14.70
2022-12-14T00:39:57.961Z,15.98
2022-12-14T00:42:08.501Z,14.75
2022-12-14T00:44:16.343Z,15.32
2022-12-14T00:46:25.533Z,14.57
2022-12-14T00:48:34.408Z,16.10
2022-12-14T00:50:42.942Z,13.95
2022-12-14T00:52:56.763Z,14.38
2022-12-14T00:55:04.485Z,14.30
2022-12-14T00:57:15.213Z,14.88
2022-12-14T00:59:27.184Z,14.48
2022-12-14T01:01:38.699Z,15.85
2022-12-14T01:03:46.751Z,15.35
2022-12-14T01:05:54.942Z,16.50
2022-12-14T01:08:03.973Z,15.43
2022-12-14T01:10:12.638Z,15.27
2022-12-14T01:12:22.996Z,16.80
2022-12-14T01:14:30.912Z,15.93
2022-12-14T01:16:39.633Z,16.17
2022-12-14T01:18:47.427Z,15.40
2022-12-14T01:20:55.226Z,15.00
2022-12-14T01:23:03.438Z,14.80
2022-12-14T01:25:11.945Z,17.55
2022-12-14T01:27:22.297Z,15.15
2022-12-14T01:29:30.172Z,14.88
2022-12-14T01:31:41.294Z,16.23
2022-12-14T01:33:49.249Z,14.73
2022-12-14T01:35:57.672Z,16.27
2022-12-14T01:38:07.923Z,16.80
2022-12-14T01:40:15.970Z,16.55
2022-12-14T01:42:26.410Z,14.70
2022-12-14T01:45:00.046Z,18.08
2022-12-14T01:47:12.954Z,17.48
2022-12-14T01:49:28.671Z,17.10
2022-12-14T01:51:39.641Z,16.15
2022-12-14T01:53:48.048Z,18.20
2022-12-14T01:55:59.026Z,18.38
2022-12-14T01:58:13.794Z,17.73
2022-12-14T02:00:24.675Z,18.27
2022-12-14T02:02:33.117Z,18.25
2022-12-14T02:04:48.613Z,20.13
2022-12-14T02:07:01.106Z,20.33
2022-12-14T02:09:12.237Z,18.20
2022-12-14T02:11:39.899Z,18.75
2022-12-14T02:13:50.455Z,18.17
2022-12-14T02:15:58.796Z,17.58
2022-12-14T02:18:08.992Z,18.67
2022-12-14T02:20:20.894Z,17.00
2022-12-14T02:22:52.531Z,18.90
2022-12-14T02:25:23.121Z,17.77
2022-12-14T02:27:53.932Z,18.08
2022-12-14T02:30:13.852Z,18.10
2022-12-14T02:32:34.051Z,18.77
2022-12-14T02:34:53.136Z,17.27
2022-12-14T02:37:07.176Z,18.50
2022-12-14T02:39:26.465Z,18.88
2022-12-14T02:41:41.104Z,17.55
2022-12-14T02:44:01.905Z,18.27
2022-12-14T02:46:23.945Z,17.35
2022-12-14T02:48:39.230Z,18.45
2022-12-14T02:50:57.459Z,17.70
2022-12-14T02:53:14.143Z,18.33
2022-12-14T02:55:30.680Z,18.45
2022-12-14T02:57:44.422Z,18.13
2022-12-14T02:59:56.821Z,18.33
2022-12-14T03:02:09.631Z,18.60
2022-12-14T03:04:19.243Z,17.65
2022-12-14T03:06:31.645Z,18.35
2022-12-14T03:08:39.958Z,17.65
2022-12-14T03:10:53.960Z,19.15
2022-12-14T03:13:10.813Z,20.17
2022-12-14T03:15:23.028Z,19.25
2022-12-14T03:17:36.767Z,18.42
2022-12-14T03:19:51.510Z,18.27
2022-12-14T03:22:03.525Z,20.25
2022-12-14T03:24:14.881Z,20.55
2022-12-14T03:26:28.975Z,20.13
2022-12-14T03:28:45.768Z,19.83
2022-12-14T03:31:00.629Z,19.60
2022-12-14T03:33:18.072Z,20.17
2022-12-14T03:35:30.381Z,20.98
2022-12-14T03:37:43.639Z,20.25
2022-12-14T03:39:51.975Z,21.67
2022-12-14T03:42:04.149Z,20.20
2022-12-14T03:44:24.163Z,21.60
2022-12-14T03:46:41.884Z,19.58
2022-12-14T03:48:57.038Z,20.90
2022-12-14T03:51:12.405Z,19.88
2022-12-14T03:53:25.673Z,20.95
2022-12-14T03:55:44.039Z,20.85
2022-12-14T03:58:11.845Z,20.17
2022-12-14T04:00:23.517Z,21.50
2022-12-14T04:02:41.009Z,20.20
2022-12-14T04:04:59.427Z,21.90
2022-12-14T04:07:16.814Z,22.10
2022-12-14T04:09:34.132Z,22.38
2022-12-14T04:12:00.668Z,21.42
2022-12-14T04:14:28.684Z,22.15
2022-12-14T04:16:53.525Z,20.83
2022-12-14T04:19:06.343Z,21.50
2022-12-14T04:21:21.204Z,20.60
2022-12-14T04:23:47.410Z,20.30
2022-12-14T04:26:08.057Z,20.80
2022-12-14T04:28:33.053Z,22.27
2022-12-14T04:30:43.724Z,21.05
2022-12-14T04:32:55.453Z,21.08
2022-12-14T04:35:09.549Z,21.35
2022-12-14T04:37:24.613Z,21.42
2022-12-14T04:39:39.240Z,23.42
2022-12-14T04:41:53.525Z,21.50
2022-12-14T04:44:06.093Z,20.75
2022-12-14T04:46:17.342Z,22.02
2022-12-14T04:48:33.380Z,20.35
2022-12-14T04:50:49.047Z,20.75
2022-12-14T04:53:06.464Z,21.98
2022-12-14T04:55:20.330Z,21.15
2022-12-14T04:57:34.714Z,22.40
2022-12-14T04:59:43.098Z,22.42
2022-12-14T05:02:02.156Z,23.17
2022-12-14T05:04:20.460Z,20.35
2022-12-14T05:06:30.783Z,21.77
2022-12-14T05:09:04.720Z,19.83
2022-12-14T05:11:52.054Z,21.50
2022-12-14T05:13:52.290Z,21.75
2022-12-14T05:16:01.418Z,21.40
2022-12-14T05:18:10.333Z,21.48
2022-12-14T05:20:21.316Z,22.60
2022-12-14T05:22:29.197Z,20.45
2022-12-14T05:24:39.741Z,21.80
2022-12-14T05:26:47.652Z,22.15
2022-12-14T05:28:55.715Z,21.75
2022-12-14T05:31:03.573Z,21.27
2022-12-14T05:33:16.422Z,22.17
2022-12-14T05:35:26.628Z,21.58
2022-12-14T05:37:34.504Z,22.67
2022-12-14T05:39:46.187Z,21.05
2022-12-14T05:41:54.129Z,22.15
2022-12-14T05:44:17.406Z,21.52
2022-12-14T05:46:25.496Z,22.13
2022-12-14T05:48:33.521Z,21.15
2022-12-14T05:50:42.483Z,21.45
2022-12-14T05:52:50.634Z,21.15
2022-12-14T05:55:04.521Z,22.02
2022-12-14T05:57:13.233Z,22.77
2022-12-14T05:59:21.189Z,23.20
2022-12-14T06:01:29.127Z,23.02
2022-12-14T06:03:37.440Z,21.15
2022-12-14T06:05:46.395Z,23.60
2022-12-14T06:07:54.189Z,23.08
2022-12-14T06:10:06.466Z,22.08
2022-12-14T06:12:14.261Z,23.17
2022-12-14T06:14:24.364Z,23.13
2022-12-14T06:16:32.217Z,22.58
2022-12-14T06:18:48.438Z,24.02
2022-12-14T06:20:56.238Z,23.40
2022-12-14T06:23:04.053Z,24.30
2022-12-14T06:25:15.086Z,23.48
2022-12-14T06:27:23.535Z,22.48
2022-12-14T06:29:31.387Z,23.23
2022-12-14T06:31:40.029Z,21.95
2022-12-14T06:33:49.040Z,24.98
2022-12-14T06:35:58.082Z,22.85
2022-12-14T06:38:06.958Z,23.48
2022-12-14T06:40:17.640Z,23.25
2022-12-14T06:42:26.074Z,25.90
2022-12-14T06:44:34.000Z,22.90
2022-12-14T06:46:43.076Z,23.17
2022-12-14T06:48:54.650Z,23.55
2022-12-14T06:51:04.688Z,23.60
2022-12-14T06:53:15.458Z,24.85
2022-12-14T06:55:26.580Z,25.25
2022-12-14T06:57:34.989Z,23.13
2022-12-14T06:59:43.156Z,24.30
2022-12-14T07:01:52.478Z,24.80
2022-12-14T07:04:02.165Z,24.35
2022-12-14T07:06:12.097Z,24.25
2022-12-14T07:08:20.777Z,25.15
2022-12-14T07:10:31.286Z,26.38
2022-12-14T07:12:39.237Z,25.58
2022-12-14T07:14:47.038Z,25.88
2022-12-14T07:16:56.323Z,26.77
2022-12-14T07:19:04.993Z,25.20
2022-12-14T07:21:15.433Z,25.45
2022-12-14T07:23:27.883Z,24.25
2022-12-14T07:25:38.679Z,25.40
2022-12-14T07:27:46.636Z,25.23
2022-12-14T07:29:56.171Z,25.25
2022-12-14T07:32:04.093Z,24.92
2022-12-14T07:34:16.868Z,25.00
2022-12-14T07:36:26.294Z,26.70
2022-12-14T07:38:34.711Z,26.60
2022-12-14T07:40:45.256Z,24.85
2022-12-14T07:42:53.478Z,26.35
2022-12-14T07:45:01.569Z,26.02
2022-12-14T07:47:12.578Z,26.90
2022-12-14T07:49:24.535Z,25.23
2022-12-14T07:51:35.902Z,26.55
2022-12-14T07:53:44.351Z,27.05
2022-12-14T07:55:55.824Z,25.10
2022-12-14T07:58:03.707Z,27.75
2022-12-14T08:00:14.237Z,25.52
2022-12-14T08:02:22.534Z,24.50
2022-12-14T08:04:30.580Z,25.38
2022-12-14T08:06:40.588Z,25.85
2022-12-14T08:08:49.694Z,26.92
2022-12-14T08:11:01.576Z,25.08
2022-12-14T08:13:09.881Z,26.42
2022-12-14T08:15:17.969Z,26.73
2022-12-14T08:17:25.763Z,25.55
2022-12-14T08:19:34.058Z,25.33
2022-12-14T08:21:43.116Z,24.17
2022-12-14T08:23:51.195Z,24.85
2022-12-14T08:26:03.876Z,24.85
2022-12-14T08:28:11.719Z,26.67
2022-12-14T08:30:20.115Z,25.15
2022-12-14T08:32:33.979Z,26.17
2022-12-14T08:34:42.275Z,24.30
2022-12-14T08:36:50.494Z,26.20
2022-12-14T08:39:01.372Z,28.05
2022-12-14T08:41:13.588Z,24.63
2022-12-14T08:43:24.910Z,24.83
2022-12-14T08:45:33.106Z,25.05
2022-12-14T08:47:41.313Z,25.27
2022-12-14T08:49:49.141Z,24.08
2022-12-14T08:51:57.063Z,25.88
2022-12-14T08:54:06.044Z,25.08
2022-12-14T08:56:20.492Z,25.33
2022-12-14T08:58:29.733Z,26.30
2022-12-14T09:00:39.323Z,26.02
2022-12-14T09:02:47.360Z,24.63
2022-12-14T09:04:58.983Z,24.60
2022-12-14T09:07:06.740Z,23.63
2022-12-14T09:09:16.610Z,24.15
2022-12-14T09:11:27.614Z,26.38
2022-12-14T09:13:37.560Z,25.27
2022-12-14T09:15:45.414Z,27.30
2022-12-14T09:17:53.396Z,24.50
2022-12-14T09:20:01.230Z,24.45
2022-12-14T09:22:09.359Z,24.38
2022-12-14T09:24:17.275Z,26.80
2022-12-14T09:26:28.287Z,25.30
2022-12-14T09:28:39.017Z,26.75
2022-12-14T09:30:46.949Z,28.40
2022-12-14T09:32:56.104Z,25.95
2022-12-14T09:35:04.291Z,28.85
2022-12-14T09:37:14.563Z,27.85
2022-12-14T09:39:22.475Z,26.55
2022-12-14T09:41:54.098Z,26.83
2022-12-14T09:44:17.725Z,27.35
2022-12-14T09:46:40.715Z,28.00
2022-12-14T09:48:49.293Z,28.65
2022-12-14T09:50:57.541Z,27.27
2022-12-14T09:53:11.072Z,28.23
2022-12-14T09:55:22.943Z,28.58
2022-12-14T09:57:37.371Z,28.35
2022-12-14T09:59:45.433Z,30.52
2022-12-14T10:04:47.771Z,31.77
2022-12-14T10:07:04.014Z,29.05
2022-12-14T10:09:17.945Z,29.38
2022-12-14T10:11:38.407Z,28.90
2022-12-14T10:13:58.187Z,29.23
2022-12-14T10:16:17.023Z,29.23
2022-12-14T10:18:59.917Z,29.77
2022-12-14T10:21:15.106Z,29.30
2022-12-14T10:23:26.939Z,30.23
2022-12-14T10:25:37.659Z,28.83
2022-12-14T10:28:10.263Z,29.63
2022-12-14T10:30:24.378Z,30.88
2022-12-14T10:32:39.056Z,29.52
2022-12-14T10:34:47.353Z,29.70
2022-12-14T10:37:10.700Z,29.88
2022-12-14T10:39:26.325Z,30.75
2022-12-14T10:41:40.142Z,29.23
2022-12-14T10:43:56.222Z,30.35
2022-12-14T10:46:16.796Z,31.42
2022-12-14T10:48:37.441Z,31.42
2022-12-14T10:50:57.213Z,31.75
2022-12-14T10:53:07.238Z,31.88
2022-12-14T10:55:19.820Z,32.10
2022-12-14T10:57:31.046Z,31.73
2022-12-14T10:59:51.953Z,32.28
2022-12-14T11:02:17.421Z,30.42
2022-12-14T11:04:33.943Z,31.95
2022-12-14T11:06:42.410Z,31.77
2022-12-14T11:08:54.025Z,31.45
2022-12-14T11:11:18.461Z,28.60
2022-12-14T11:13:27.580Z,30.45
2022-12-14T11:15:38.012Z,28.52
2022-12-14T11:17:49.043Z,30.17
2022-12-14T11:20:08.838Z,30.00
2022-12-14T11:22:22.627Z,31.42
2022-12-14T11:24:35.865Z,30.15
2022-12-14T11:26:45.993Z,31.40
2022-12-14T11:28:57.051Z,32.15
2022-12-14T11:31:09.522Z,34.83
2022-12-14T11:33:23.324Z,31.80
2022-12-14T11:35:32.243Z,35.83
2022-12-14T11:37:41.832Z,33.20
2022-12-14T11:39:55.766Z,32.65
2022-12-14T11:42:11.326Z,29.63
2022-12-14T11:44:27.279Z,30.45
2022-12-14T11:46:46.710Z,31.05
2022-12-14T11:48:59.789Z,30.25
2022-12-14T11:51:14.079Z,34.17
2022-12-14T11:53:24.496Z,31.48
2022-12-14T11:55:33.260Z,32.63
2022-12-14T11:57:51.032Z,30.20
2022-12-14T12:00:02.066Z,30.58
2022-12-14T12:02:21.166Z,32.97
2022-12-14T12:04:31.807Z,33.63
2022-12-14T12:06:40.696Z,34.17
2022-12-14T12:08:49.024Z,33.55
2022-12-14T12:11:03.451Z,33.00
2022-12-14T12:13:22.630Z,32.25
2022-12-14T12:15:38.950Z,33.97
2022-12-14T12:17:50.195Z,34.80
2022-12-14T12:20:02.026Z,33.42
2022-12-14T12:22:15.020Z,33.53
2022-12-14T12:24:27.128Z,33.75
2022-12-14T12:26:39.310Z,35.05
2022-12-14T12:28:54.611Z,33.10
2022-12-14T12:31:10.969Z,33.72
2022-12-14T12:33:32.282Z,32.28
2022-12-14T12:35:55.458Z,33.97
2022-12-14T12:38:09.833Z,34.03
2022-12-14T12:40:22.086Z,34.13
2022-12-14T12:42:40.839Z,34.58
2022-12-14T12:44:55.822Z,32.72
2022-12-14T12:47:26.033Z,33.08
2022-12-14T12:49:38.024Z,31.70
2022-12-14T12:51:54.331Z,33.35
2022-12-14T12:54:06.421Z,32.75
2022-12-14T12:56:20.462Z,33.05
2022-12-14T12:58:33.210Z,33.22
2022-12-14T13:00:44.344Z,30.73
2022-12-14T13:02:57.918Z,31.27
2022-12-14T13:05:44.523Z,32.88
2022-12-14T13:07:47.158Z,34.28
2022-12-14T13:10:05.610Z,33.28
2022-12-14T13:12:30.559Z,35.00
2022-12-14T13:14:50.151Z,36.35
2022-12-14T13:17:00.221Z,34.00
2022-12-14T13:19:48.687Z,35.88
2022-12-14T13:21:52.860Z,37.58
2022-12-14T13:24:07.659Z,34.20
2022-12-14T13:26:56.200Z,34.20
2022-12-14T13:29:03.486Z,33.35
2022-12-14T13:31:30.545Z,35.55
2022-12-14T13:34:10.697Z,35.40
2022-12-14T13:36:37.080Z,35.88
2022-12-14T13:39:04.540Z,34.05
2022-12-14T13:41:37.338Z,34.83
2022-12-14T13:44:10.863Z,35.50
2022-12-14T13:46:24.173Z,38.30
2022-12-14T13:48:40.254Z,36.28
2022-12-14T13:50:56.041Z,35.42
2022-12-14T13:53:19.016Z,34.35
2022-12-14T13:55:37.443Z,35.75
2022-12-14T13:57:48.412Z,34.33
2022-12-14T14:00:00.471Z,35.83
2022-12-14T14:02:09.306Z,34.72
2022-12-14T14:04:25.810Z,34.78
2022-12-14T14:06:40.163Z,34.90
2022-12-14T14:08:50.958Z,35.28
2022-12-14T14:11:28.631Z,35.35
2022-12-14T14:13:59.150Z,35.70
2022-12-14T14:16:28.292Z,33.80
2022-12-14T14:18:48.958Z,35.00
2022-12-14T14:21:42.719Z,36.42
2022-12-14T14:24:02.355Z,32.65
2022-12-14T14:26:29.489Z,35.70
2022-12-14T14:28:40.057Z,33.08
2022-12-14T14:30:54.276Z,34.60
2022-12-14T14:33:36.320Z,34.65
2022-12-14T14:35:38.574Z,38.78
2022-12-14T14:38:02.084Z,34.40
2022-12-14T14:40:44.231Z,36.63
2022-12-14T14:43:04.128Z,35.67
2022-12-14T14:45:30.959Z,34.45
2022-12-14T14:47:41.675Z,36.10
2022-12-14T14:49:56.637Z,35.03
2022-12-14T14:52:34.266Z,36.60
2022-12-14T14:55:27.908Z,35.53
2022-12-14T14:57:38.566Z,32.95
2022-12-14T14:59:50.959Z,32.70
2022-12-14T15:02:01.831Z,33.17
2022-12-14T15:04:23.026Z,34.00
2022-12-14T15:06:43.782Z,34.13
2022-12-14T15:08:56.273Z,30.70
2022-12-14T15:11:16.463Z,31.63
2022-12-14T15:13:28.802Z,33.05
2022-12-14T15:15:40.298Z,34.35
2022-12-14T15:17:49.786Z,32.70
2022-12-14T15:19:59.201Z,32.47
2022-12-14T15:22:12.500Z,30.88
2022-12-14T15:24:20.831Z,31.83
2022-12-14T15:26:32.100Z,32.30
2022-12-14T15:28:41.123Z,31.20
2022-12-14T15:30:50.842Z,29.40
2022-12-14T15:33:02.381Z,29.45
2022-12-14T15:35:17.912Z,30.83
2022-12-14T15:37:40.341Z,30.90
2022-12-14T15:39:48.203Z,30.23
2022-12-14T15:42:06.228Z,30.70
2022-12-14T15:44:23.445Z,29.73
2022-12-14T15:46:33.927Z,31.25
2022-12-14T15:48:41.820Z,32.40
2022-12-14T15:50:55.306Z,33.15
2022-12-14T15:53:14.654Z,31.33
2022-12-14T15:55:42.353Z,32.38
2022-12-14T15:57:55.281Z,30.25
2022-12-14T16:00:05.766Z,30.35
2022-12-14T16:02:25.511Z,31.80
2022-12-14T16:04:35.296Z,30.67
2022-12-14T16:06:45.988Z,31.25
2022-12-14T16:09:05.730Z,31.83
2022-12-14T16:11:23.136Z,31.50
2022-12-14T16:13:34.897Z,31.45
2022-12-14T16:15:46.386Z,31.73
2022-12-14T16:18:02.555Z,33.05
2022-12-14T16:20:23.482Z,32.97
2022-12-14T16:22:32.524Z,29.70
2022-12-14T16:25:00.259Z,30.30
2022-12-14T16:27:20.876Z,31.10
2022-12-14T16:29:32.243Z,28.85
2022-12-14T16:31:40.741Z,29.63
2022-12-14T16:33:50.346Z,28.33
2022-12-14T16:36:05.198Z,29.88
2022-12-14T16:38:16.508Z,29.00
2022-12-14T16:40:38.225Z,30.92
2022-12-14T16:42:47.330Z,31.17
2022-12-14T16:44:56.729Z,29.75
2022-12-14T16:47:28.866Z,28.80
2022-12-14T16:49:39.396Z,29.70
2022-12-14T16:54:26.700Z,27.58
2022-12-14T16:56:45.597Z,29.33
2022-12-14T16:58:56.711Z,30.13
2022-12-14T17:01:07.400Z,29.67
2022-12-14T17:03:25.033Z,28.95
2022-12-14T17:05:37.350Z,29.52
2022-12-14T17:07:50.003Z,29.48
2022-12-14T17:09:58.604Z,29.88
2022-12-14T17:12:17.971Z,28.80
2022-12-14T17:14:25.968Z,29.60
2022-12-14T17:16:34.263Z,30.40
2022-12-14T17:18:44.865Z,28.90
2022-12-14T17:20:52.782Z,30.65
2022-12-14T17:23:03.327Z,29.83
2022-12-14T17:25:13.779Z,30.13
2022-12-14T17:27:26.818Z,31.20
2022-12-14T17:29:35.034Z,29.85
2022-12-14T17:31:49.936Z,30.00
2022-12-14T17:34:00.196Z,30.40
2022-12-14T17:36:08.925Z,28.80
2022-12-14T17:38:18.498Z,29.52
2022-12-14T17:40:27.203Z,29.23
2022-12-14T17:42:40.572Z,29.52
2022-12-14T17:44:54.466Z,29.67
2022-12-14T17:47:02.308Z,30.00
2022-12-14T17:49:15.418Z,29.95
2022-12-14T17:51:28.682Z,29.00
2022-12-14T17:53:41.180Z,28.38
2022-12-14T17:56:01.281Z,29.63
2022-12-14T17:58:23.126Z,30.30
2022-12-14T18:00:47.003Z,30.15
2022-12-14T18:02:58.052Z,29.90
2022-12-14T18:05:06.958Z,30.95
2022-12-14T18:07:14.781Z,30.67
2022-12-14T18:09:22.670Z,29.65
2022-12-14T18:11:30.816Z,30.05
2022-12-14T18:13:41.442Z,31.30
2022-12-14T18:15:51.257Z,29.65
2022-12-14T18:18:00.158Z,31.17
2022-12-14T18:20:12.997Z,29.48
2022-12-14T18:22:23.465Z,31.55
2022-12-14T18:24:31.902Z,30.65
2022-12-14T18:26:40.992Z,29.38
2022-12-14T18:28:52.987Z,30.60
2022-12-14T18:31:03.445Z,29.70
2022-12-14T18:33:16.007Z,29.67
2022-12-14T18:35:26.574Z,29.10
2022-12-14T18:37:34.375Z,30.80
2022-12-14T18:39:43.538Z,30.05
2022-12-14T18:41:59.661Z,30.55
2022-12-14T18:44:10.886Z,42.60
2022-12-14T18:46:19.610Z,31.30
2022-12-14T18:48:29.192Z,30.15
2022-12-14T18:50:42.558Z,36.40
2022-12-14T18:52:53.880Z,31.75
2022-12-14T18:55:01.908Z,30.95
2022-12-14T18:57:11.624Z,30.25
2022-12-14T18:59:22.209Z,29.73
2022-12-14T19:01:30.291Z,29.30
2022-12-14T19:03:39.769Z,29.25
2022-12-14T19:05:48.373Z,29.15
2022-12-14T19:07:56.345Z,29.52
2022-12-14T19:10:05.209Z,30.02
2022-12-14T19:12:15.147Z,27.42
2022-12-14T19:14:26.016Z,28.15
2022-12-14T19:16:34.372Z,29.65
2022-12-14T19:18:44.430Z,28.73
2022-12-14T19:20:52.345Z,30.63
2022-12-14T19:23:01.927Z,26.55
2022-12-14T19:25:12.483Z,30.50
2022-12-14T19:27:42.673Z,28.45
2022-12-14T19:29:52.201Z,28.58
2022-12-14T19:32:05.085Z,28.77
2022-12-14T19:34:13.823Z,28.58
2022-12-14T19:36:21.664Z,27.75
2022-12-14T19:38:31.820Z,26.30
2022-12-14T19:40:39.619Z,25.63
2022-12-14T19:42:48.797Z,26.67
2022-12-14T19:45:01.824Z,27.65
2022-12-14T19:47:10.918Z,28.15
2022-12-14T19:49:23.940Z,26.58
2022-12-14T19:51:31.956Z,25.42
2022-12-14T19:53:41.846Z,25.83
2022-12-14T19:55:54.223Z,28.42
2022-12-14T19:58:03.871Z,27.77
2022-12-14T20:00:16.232Z,26.23
2022-12-14T20:02:24.262Z,29.30
2022-12-14T20:04:33.061Z,29.17
2022-12-14T20:06:41.457Z,28.15
2022-12-14T20:08:49.682Z,30.55
2022-12-14T20:10:57.894Z,28.33
2022-12-14T20:13:07.034Z,28.08
2022-12-14T20:15:17.500Z,29.05
2022-12-14T20:17:25.911Z,27.50
2022-12-14T20:19:34.267Z,27.20
2022-12-14T20:21:45.859Z,28.42
2022-12-14T20:23:59.081Z,30.35
2022-12-14T20:26:14.204Z,30.38
2022-12-14T20:28:22.021Z,30.95
2022-12-14T20:30:33.940Z,29.23
2022-12-14T20:32:42.247Z,29.02
2022-12-14T20:34:50.420Z,29.80
2022-12-14T20:37:00.516Z,28.98
2022-12-14T20:39:09.964Z,29.73
2022-12-14T20:41:18.615Z,29.15
2022-12-14T20:43:26.682Z,30.42
2022-12-14T20:45:40.586Z,29.85
2022-12-14T20:47:48.493Z,29.90
2022-12-14T20:49:56.401Z,30.80
2022-12-14T20:52:04.734Z,30.40
2022-12-14T20:54:16.803Z,30.40
2022-12-14T20:56:26.379Z,32.05
2022-12-14T20:58:34.252Z,31.25
2022-12-14T21:00:45.428Z,29.77
2022-12-14T21:02:53.726Z,29.92
2022-12-14T21:05:02.853Z,32.17
2022-12-14T21:07:10.782Z,29.63
2022-12-14T21:09:20.086Z,35.47
2022-12-14T21:11:40.470Z,31.35
2022-12-14T21:13:48.421Z,32.95
2022-12-14T21:15:59.412Z,31.55
2022-12-14T21:18:08.156Z,31.60
2022-12-14T21:20:17.859Z,30.52
2022-12-14T21:22:27.885Z,30.95
2022-12-14T21:27:05.667Z,31.10
2022-12-14T21:29:15.494Z,32.20
2022-12-14T21:31:27.675Z,31.83
2022-12-14T21:33:38.418Z,32.17
2022-12-14T21:35:46.164Z,31.23
2022-12-14T21:37:54.320Z,31.70
2022-12-14T21:40:03.996Z,29.50
2022-12-14T21:42:13.571Z,31.23
2022-12-14T21:44:21.580Z,31.90
2022-12-14T21:46:32.168Z,30.55
2022-12-14T21:48:40.204Z,32.15
2022-12-14T21:50:48.306Z,33.13
2022-12-14T21:52:56.276Z,31.55
2022-12-14T21:55:05.019Z,31.15
2022-12-14T21:57:29.365Z,31.02
2022-12-14T21:59:39.186Z,31.95
2022-12-14T22:01:49.745Z,31.25
2022-12-14T22:03:57.830Z,31.73
2022-12-14T22:06:12.986Z,31.25
2022-12-14T22:08:24.937Z,29.67
2022-12-14T22:10:33.231Z,31.33
2022-12-14T22:12:42.220Z,31.10
2022-12-14T22:14:53.481Z,31.67
2022-12-14T22:17:04.523Z,30.45
2022-12-14T22:19:16.493Z,31.90
2022-12-14T22:21:24.655Z,32.60
2022-12-14T22:23:35.077Z,30.50
2022-12-14T22:25:54.396Z,29.80
2022-12-14T22:28:02.488Z,29.98
2022-12-14T22:30:12.209Z,31.20
2022-12-14T22:32:24.228Z,30.45
2022-12-14T22:34:32.134Z,29.48
2022-12-14T22:36:39.943Z,31.30
2022-12-14T22:38:48.022Z,29.45
2022-12-14T22:40:56.523Z,29.27
2022-12-14T22:43:08.103Z,30.42
2022-12-14T22:45:15.953Z,29.98
2022-12-14T22:47:26.676Z,30.67
2022-12-14T22:49:34.406Z,31.90
2022-12-14T22:51:43.513Z,30.92
2022-12-14T22:53:52.033Z,30.30
2022-12-14T22:56:05.677Z,28.77
2022-12-14T22:58:15.607Z,28.45
2022-12-14T23:00:25.555Z,31.10
2022-12-14T23:02:37.604Z,28.30
2022-12-14T23:04:46.217Z,29.90
2022-12-14T23:06:58.297Z,27.50
2022-12-14T23:09:19.266Z,28.63
2022-12-14T23:11:52.324Z,28.20
2022-12-14T23:14:12.587Z,28.15
2022-12-14T23:16:32.908Z,28.23
2022-12-14T23:18:56.095Z,28.95
2022-12-14T23:21:24.180Z,29.15
2022-12-14T23:23:44.739Z,28.70
2022-12-14T23:26:05.193Z,28.85
2022-12-14T23:28:25.427Z,31.45
2022-12-14T23:30:45.733Z,28.60
2022-12-14T23:33:06.005Z,29.40
2022-12-14T23:35:32.407Z,28.98
2022-12-14T23:37:52.722Z,28.40
2022-12-14T23:40:13.140Z,28.10
2022-12-14T23:42:33.400Z,27.52
2022-12-14T23:44:53.925Z,27.90
2022-12-14T23:47:14.174Z,28.35
2022-12-14T23:49:34.813Z,28.75
2022-12-14T23:51:58.968Z,28.10
2022-12-14T23:54:19.551Z,28.10
2022-12-14T23:56:39.838Z,26.95
2022-12-14T23:59:00.149Z,28.25
